createdAt,value
2022-09-07T00:03:31.916Z,59.79
2022-09-07T00:09:04.480Z,59.72
2022-09-07T00:14:35.467Z,60.08
2022-09-07T00:20:08.331Z,59.80
2022-09-07T00:25:40.249Z,60.07
2022-09-07T00:31:18.442Z,59.99
2022-09-07T00:36:49.558Z,59.71
2022-09-07T00:42:22.156Z,60.33
2022-09-07T00:48:03.307Z,60.13
2022-09-07T00:53:41.567Z,59.76
2022-09-07T00:59:14.823Z,60.06
2022-09-07T01:04:52.122Z,59.92
2022-09-07T01:10:26.921Z,60.20
2022-09-07T01:16:43.117Z,60.11
2022-09-07T01:22:42.037Z,60.03
2022-09-07T01:28:25.281Z,60.29
2022-09-07T01:34:08.359Z,60.11
2022-09-07T01:39:57.259Z,60.38
2022-09-07T01:45:33.506Z,60.19
2022-09-07T01:51:05.206Z,60.16
2022-09-07T01:56:45.602Z,60.20
2022-09-07T02:02:20.726Z,60.61
2022-09-07T02:07:58.062Z,59.94
2022-09-07T02:13:36.245Z,60.63
2022-09-07T02:19:11.234Z,60.56
2022-09-07T02:24:46.044Z,60.37
2022-09-07T02:30:17.398Z,60.84
2022-09-07T02:35:48.479Z,60.67
2022-09-07T02:41:38.005Z,60.23
2022-09-07T02:47:46.392Z,61.24
2022-09-07T02:53:45.896Z,60.54
2022-09-07T02:59:29.891Z,61.11
2022-09-07T03:05:03.725Z,60.33
2022-09-07T03:10:35.039Z,60.81
2022-09-07T03:16:06.193Z,60.39
2022-09-07T03:21:37.223Z,60.52
2022-09-07T03:27:12.489Z,60.84
2022-09-07T03:32:43.864Z,60.55
2022-09-07T03:38:15.053Z,60.99
2022-09-07T03:43:46.247Z,60.56
2022-09-07T03:49:17.712Z,60.64
2022-09-07T03:54:48.644Z,60.49
2022-09-07T04:00:19.828Z,61.14
2022-09-07T04:05:51.256Z,60.60
2022-09-07T04:11:22.406Z,60.54
2022-09-07T04:16:53.479Z,61.14
2022-09-07T04:22:24.839Z,61.01
2022-09-07T04:27:57.075Z,60.76
2022-09-07T04:33:28.302Z,60.79
2022-09-07T04:39:02.325Z,61.25
2022-09-07T04:44:33.836Z,60.79
2022-09-07T04:50:05.436Z,60.86
2022-09-07T04:55:36.515Z,61.10
2022-09-07T05:01:09.375Z,61.19
2022-09-07T05:06:41.300Z,61.29
2022-09-07T05:12:12.269Z,61.54
2022-09-07T05:17:43.160Z,61.29
2022-09-07T05:23:14.671Z,61.30
2022-09-07T05:28:46.123Z,61.31
2022-09-07T05:34:33.427Z,61.39
2022-09-07T05:40:06.069Z,61.25
2022-09-07T05:45:37.647Z,61.22
2022-09-07T05:51:09.644Z,61.53
2022-09-07T05:56:40.514Z,61.68
2022-09-07T06:02:15.207Z,61.69
2022-09-07T06:07:49.496Z,61.98
2022-09-07T06:13:20.760Z,62.41
2022-09-07T06:18:52.180Z,62.84
2022-09-07T06:24:23.446Z,62.82
2022-09-07T06:29:54.952Z,62.63
2022-09-07T06:35:26.171Z,63.07
2022-09-07T06:58:27.475Z,64.42
2022-09-07T07:03:58.529Z,64.60
2022-09-07T07:09:29.618Z,64.58
2022-09-07T07:15:00.556Z,64.70
2022-09-07T07:20:32.286Z,66.48
2022-09-07T07:26:04.900Z,64.55
2022-09-07T07:31:36.515Z,64.54
2022-09-07T07:37:08.066Z,65.05
2022-09-07T07:42:40.812Z,65.20
2022-09-07T07:48:13.244Z,65.13
2022-09-07T07:53:45.650Z,65.15
2022-09-07T07:59:16.577Z,65.24
2022-09-07T08:04:47.542Z,65.28
2022-09-07T08:10:22.109Z,65.20
2022-09-07T08:16:04.114Z,64.32
2022-09-07T08:21:40.184Z,64.71
2022-09-07T08:27:11.716Z,64.78
2022-09-07T08:32:44.352Z,65.31
2022-09-07T08:38:20.442Z,65.08
2022-09-07T08:44:02.164Z,65.18
2022-09-07T08:49:44.782Z,66.14
2022-09-07T08:55:57.486Z,65.69
2022-09-07T09:01:36.023Z,65.46
2022-09-07T09:07:25.138Z,65.23
2022-09-07T09:13:11.628Z,65.30
2022-09-07T09:18:45.816Z,65.25
2022-09-07T09:24:19.482Z,65.06
2022-09-07T09:29:50.594Z,64.62
2022-09-07T09:35:32.822Z,64.68
2022-09-07T09:41:06.560Z,65.01
2022-09-07T09:46:38.123Z,63.56
2022-09-07T09:52:29.799Z,63.97
2022-09-07T10:04:24.847Z,63.75
2022-09-07T10:09:56.965Z,63.99
2022-09-07T10:15:40.401Z,64.58
2022-09-07T10:21:29.155Z,64.62
2022-09-07T10:27:00.254Z,63.92
2022-09-07T10:32:45.438Z,64.37
2022-09-07T10:38:23.063Z,64.29
2022-09-07T10:43:54.942Z,64.39
2022-09-07T10:49:34.227Z,67.12
2022-09-07T10:55:26.517Z,67.34
2022-09-07T11:01:12.777Z,66.84
2022-09-07T11:06:55.647Z,66.10
2022-09-07T11:12:35.026Z,67.32
2022-09-07T11:18:18.938Z,66.87
2022-09-07T11:23:58.788Z,66.39
2022-09-07T11:29:47.448Z,65.25
2022-09-07T11:35:47.819Z,65.09
2022-09-07T11:41:43.284Z,63.95
2022-09-07T11:48:03.575Z,63.93
2022-09-07T11:53:37.933Z,63.37
2022-09-07T11:59:40.326Z,63.69
2022-09-07T12:05:49.046Z,62.83
2022-09-07T12:11:40.422Z,62.04
2022-09-07T12:17:20.690Z,62.11
2022-09-07T12:23:05.363Z,62.18
2022-09-07T12:28:36.700Z,61.57
2022-09-07T12:34:32.466Z,62.16
2022-09-07T12:40:30.477Z,62.91
2022-09-07T12:46:02.153Z,61.70
2022-09-07T12:58:00.523Z,62.71
2022-09-07T13:03:59.753Z,63.05
2022-09-07T13:09:39.247Z,62.86
2022-09-07T13:15:38.869Z,63.53
2022-09-07T13:21:11.042Z,63.16
2022-09-07T13:26:53.777Z,63.58
2022-09-07T13:38:25.556Z,64.41
2022-09-07T13:44:01.770Z,64.79
2022-09-07T13:49:36.090Z,64.93
2022-09-07T13:56:03.484Z,64.45
2022-09-07T14:01:35.683Z,62.67
2022-09-07T14:07:20.342Z,62.80
2022-09-07T14:13:06.462Z,62.36
2022-09-07T14:18:40.114Z,61.65
2022-09-07T14:24:27.093Z,62.53
2022-09-07T14:30:17.047Z,62.29
2022-09-07T14:35:49.124Z,61.87
2022-09-07T14:41:20.680Z,62.23
2022-09-07T14:46:55.357Z,61.73
2022-09-07T14:53:33.404Z,61.47
2022-09-07T14:58:32.694Z,61.74
2022-09-07T15:04:03.933Z,61.19
2022-09-07T15:09:37.071Z,61.12
2022-09-07T15:15:28.311Z,61.41
2022-09-07T15:20:59.524Z,61.79
2022-09-07T15:32:29.023Z,62.25
2022-09-07T15:38:02.403Z,62.29
2022-09-07T15:43:37.976Z,62.53
2022-09-07T15:49:12.471Z,62.46
2022-09-07T15:54:43.834Z,62.70
2022-09-07T16:00:15.162Z,62.54
2022-09-07T16:05:46.809Z,62.63
2022-09-07T16:11:23.971Z,62.47
2022-09-07T16:28:43.364Z,62.08
2022-09-07T16:34:18.549Z,61.82
2022-09-07T16:39:49.854Z,61.57
2022-09-07T16:51:13.674Z,61.48
2022-09-07T16:56:45.475Z,61.56
2022-09-07T17:02:18.257Z,61.38
2022-09-07T17:07:49.763Z,61.65
2022-09-07T17:13:22.632Z,61.55
2022-09-07T17:24:48.729Z,61.81
2022-09-07T17:30:20.804Z,61.88
2022-09-07T17:35:53.098Z,61.98
2022-09-07T17:41:26.944Z,61.99
2022-09-07T17:46:58.090Z,62.11
2022-09-07T17:52:29.321Z,62.23
2022-09-07T17:58:04.451Z,62.21
2022-09-07T18:03:36.220Z,62.25
2022-09-07T18:09:07.404Z,62.25
2022-09-07T18:14:38.443Z,61.98
2022-09-07T18:20:10.080Z,61.80
2022-09-07T18:25:43.223Z,61.98
2022-09-07T18:31:15.222Z,62.21
2022-09-07T18:36:47.603Z,62.02
2022-09-07T18:42:22.390Z,62.26
2022-09-07T18:47:54.735Z,62.17
2022-09-07T18:53:26.156Z,62.28
2022-09-07T18:58:58.537Z,62.22
2022-09-07T19:05:49.484Z,62.25
2022-09-07T19:10:21.705Z,62.34
2022-09-07T19:15:54.729Z,62.32
2022-09-07T19:21:33.057Z,62.45
2022-09-07T19:27:04.898Z,62.16
2022-09-07T19:32:36.282Z,62.43
2022-09-07T19:38:07.728Z,62.47
2022-09-07T19:43:39.215Z,62.57
2022-09-07T19:49:12.417Z,62.38
2022-09-07T19:54:44.398Z,62.58
2022-09-07T20:00:15.783Z,62.46
2022-09-07T20:05:47.727Z,62.45
2022-09-07T20:11:19.302Z,62.34
2022-09-07T20:16:50.751Z,62.56
2022-09-07T20:22:22.642Z,62.50
2022-09-07T20:27:53.875Z,62.70
2022-09-07T20:33:24.922Z,62.68
2022-09-07T20:38:56.805Z,62.63
2022-09-07T20:44:27.830Z,62.79
2022-09-07T20:49:59.079Z,62.76
2022-09-07T20:55:30.316Z,62.89
2022-09-07T21:01:01.656Z,62.73
2022-09-07T21:06:33.360Z,62.96
2022-09-07T21:12:05.637Z,62.76
2022-09-07T21:17:36.995Z,62.80
2022-09-07T21:23:08.796Z,62.90
2022-09-07T21:28:40.825Z,62.77
2022-09-07T21:34:11.956Z,62.98
2022-09-07T21:39:43.238Z,63.00
2022-09-07T21:45:14.976Z,63.08
2022-09-07T21:50:47.029Z,62.96
2022-09-07T21:56:18.014Z,62.97
2022-09-07T22:01:49.540Z,62.81
2022-09-07T22:07:20.734Z,62.83
2022-09-07T22:12:51.959Z,62.89
2022-09-07T22:18:23.008Z,63.01
2022-09-07T22:24:00.198Z,63.03
2022-09-07T22:29:31.543Z,62.83
2022-09-07T22:35:02.449Z,63.05
2022-09-07T22:40:33.365Z,62.88
2022-09-07T22:46:21.713Z,61.86
2022-09-07T22:51:52.832Z,62.59
2022-09-07T22:57:23.752Z,62.52
2022-09-07T23:02:54.718Z,62.21
2022-09-07T23:08:26.407Z,62.17
2022-09-07T23:13:59.747Z,61.80
2022-09-07T23:19:31.042Z,62.18
2022-09-07T23:25:02.376Z,62.02
2022-09-07T23:30:35.878Z,61.60
2022-09-07T23:36:08.304Z,61.69
2022-09-07T23:41:39.423Z,61.53
2022-09-07T23:47:10.551Z,61.79
2022-09-07T23:52:41.800Z,62.15
2022-09-07T23:58:13.259Z,62.11
